Latest Weather Observations for Frankston

IDV60801

Issued at 9:05 pm EDT Friday 24 October 2014 (issued every 30 minutes, with the page automatically refreshed every 10 minutes)

About weather observations | Map of weather stations | Latest weather observations for VIC | Other Formats
Station Details ID: 086371 Name: FRANKSTON AWS Lat: -38.15 Lon: 145.12 Height: 6.0 m
Data from the previous 72 hours. | See also: Recent months at Frankston
Date/Time
EDT
Temp
°C
App
Temp
°C
Dew
Point
Rel
Hum
%
Delta-T
°C
Wind Press
QNH
hPa
Press
MSL
hPa
Rain
since 9 am
mm
Dir
 
Spd
km/h
Gust
km/h
Spd
kts
Gust
kts
24/09:00pm 15.8 16.3 12.9 83 1.6 SSW 2 7 1 4 - - -
24/08:30pm 16.2 16.0 13.1 82 1.7 SSW 6 11 3 6 - - -
24/08:00pm 18.2 17.4 14.1 77 2.3 SSW 11 19 6 10 - - -
24/07:30pm 17.7 16.3 14.4 81 1.9 WSW 15 22 8 12 - - -
24/07:00pm 18.3 15.3 14.8 80 2.0 WSW 24 28 13 15 - - -
24/06:30pm 19.3 16.4 15.2 77 2.4 WSW 24 28 13 15 - - -
24/06:00pm 20.2 18.1 14.8 71 3.2 WSW 19 20 10 11 - - -
24/05:30pm 22.3 19.2 13.4 57 5.1 WSW 22 24 12 13 - - -
24/05:00pm 23.1 20.2 13.0 53 5.8 WSW 20 22 11 12 - - -
24/04:30pm 22.1 22.3 14.2 61 4.6 W 6 7 3 4 - - -
24/04:00pm 22.1 23.1 14.2 61 4.6 W 2 4 1 2 - - -
24/03:30pm 21.7 23.1 15.3 67 3.8 W 2 7 1 4 - - -
24/03:00pm 21.7 22.1 14.8 65 4.1 WSW 6 9 3 5 - - -
24/02:30pm 21.4 21.6 14.3 64 4.1 W 6 7 3 4 - - -
24/02:00pm 21.2 21.5 14.6 66 3.9 WSW 6 9 3 5 - - -
24/01:30pm 19.9 20.6 15.7 77 2.5 WSW 6 7 3 4 - - -
24/01:00pm 17.3 17.8 15.6 90 1.0 WSW 7 7 4 4 - - -
24/12:30pm 16.0 15.0 14.5 91 0.9 W 13 17 7 9 - - -
24/12:00pm 15.7 15.4 14.4 92 0.7 W 9 11 5 6 - - -
24/11:30am 15.4 14.7 14.3 93 0.6 W 11 13 6 7 - - -
24/11:00am 15.3 15.3 14.2 93 0.6 WSW 7 9 4 5 - - -
24/10:30am 15.0 15.1 14.0 94 0.6 W 6 6 3 3 - - -
24/10:00am 14.4 14.7 13.4 94 0.6 NW 4 6 2 3 - - -
24/09:30am 14.3 14.9 13.2 93 0.6 N 2 4 1 2 - - -
24/09:00am 14.2 14.4 13.1 93 0.6 WNW 4 6 2 3 - - -
24/08:30am 14.2 14.7 12.9 92 0.7 N 2 4 1 2 - - -
24/08:00am 14.3 14.1 12.9 91 0.8 N 6 7 3 4 - - -
24/07:30am 14.5 15.4 13.0 91 0.8 CALM 0 6 0 3 - - -
24/07:00am 14.0 14.4 12.4 90 0.9 E 2 6 1 3 - - -
24/06:30am 13.9 13.9 12.3 90 0.9 E 4 6 2 3 - - -
24/06:00am 14.0 13.9 12.2 89 1.0 ESE 4 4 2 2 - - -
24/05:30am 14.5 15.3 12.5 88 1.1 CALM 0 2 0 1 - - -
24/05:00am 14.8 14.9 12.8 88 1.1 ENE 4 6 2 3 - - -
24/04:30am 15.1 15.3 13.0 87 1.2 NE 4 7 2 4 - - -
24/04:00am 15.8 15.8 13.5 86 1.3 E 6 11 3 6 - - -
24/03:30am 15.9 15.3 13.6 86 1.3 E 9 17 5 9 - - -
24/03:00am 15.9 14.9 13.4 85 1.4 E 11 17 6 9 - - -
24/02:30am 15.9 14.9 13.4 85 1.4 E 11 20 6 11 - - -
24/02:00am 16.0 15.0 13.3 84 1.5 E 11 20 6 11 - - -
24/01:30am 16.1 14.3 13.4 84 1.5 E 15 24 8 13 - - -
24/01:00am 16.1 13.9 13.4 84 1.5 E 17 32 9 17 - - -
24/12:30am 16.1 14.3 13.4 84 1.5 ESE 15 30 8 16 - - -
24/12:00am 16.2 13.1 13.3 83 1.6 E 22 37 12 20 - - -
 
Date/Time
EDT
Temp
°C
App
Temp
°C
Dew
Point
Rel
Hum
%
Delta-T
°C
Wind Press
QNH
hPa
Press
MSL
hPa
Rain
since 9 am
mm
Dir
 
Spd
km/h
Gust
km/h
Spd
kts
Gust
kts
23/11:30pm 16.3 13.5 13.2 82 1.7 E 20 35 11 19 - - -
23/11:00pm 16.3 13.1 13.0 81 1.8 ESE 22 43 12 23 - - -
23/10:30pm - - - - - ESE 24 43 13 23 - - -
23/10:00pm 16.3 12.7 13.0 81 1.8 ESE 24 39 13 21 - - -
23/09:30pm 16.3 12.6 12.8 80 1.9 ESE 24 41 13 22 - - -
23/09:20pm 16.3 11.9 12.8 80 1.9 ESE 28 46 15 25 - - -
23/09:00pm 16.3 12.6 12.8 80 1.9 ESE 24 50 13 27 - - -
23/08:30pm 16.2 12.5 12.7 80 1.9 ESE 24 46 13 25 - - -
23/08:00pm 16.4 13.1 12.8 79 2.0 ESE 22 39 12 21 - - -
23/07:30pm 16.7 12.6 12.7 77 2.2 E 26 50 14 27 - - -
23/07:00pm 17.4 14.1 12.9 75 2.5 ESE 22 41 12 22 - - -
23/06:30pm 17.6 14.4 13.1 75 2.5 ESE 22 44 12 24 - - -
23/06:00pm 18.1 14.9 13.2 73 2.8 ESE 22 46 12 25 - - -
23/05:30pm 18.8 15.7 13.4 71 3.1 E 22 43 12 23 - - -
23/05:00pm 18.9 16.3 13.7 72 3.0 E 20 39 11 21 - - -
23/04:30pm 18.9 16.2 13.5 71 3.1 E 20 37 11 20 - - -
23/04:00pm 18.9 15.8 13.5 71 3.1 ESE 22 41 12 22 - - -
23/03:30pm 19.3 17.6 13.7 70 3.2 E 15 30 8 16 - - -
23/03:00pm 19.5 18.8 14.3 72 3.0 ESE 11 24 6 13 - - -
23/02:30pm 18.4 17.8 13.5 73 2.8 SE 9 20 5 11 - - -
23/02:00pm 18.0 17.0 13.3 74 2.7 SSE 11 19 6 10 - - -
23/01:30pm 17.5 16.8 13.2 76 2.4 ESE 9 20 5 11 - - -
23/01:00pm 16.6 16.1 12.8 78 2.1 ESE 7 15 4 8 - - -
23/12:30pm 16.0 15.4 12.4 79 2.0 SE 7 11 4 6 - - -
23/12:00pm 15.8 15.2 12.2 79 2.0 SSE 7 11 4 6 - - -
23/11:30am 15.6 15.5 12.0 79 2.0 SE 4 11 2 6 - - -
23/11:00am 15.3 14.7 11.7 79 1.9 SSE 6 9 3 5 - - -
23/10:30am 15.2 15.4 12.0 81 1.7 S 2 6 1 3 - - -
23/10:00am 14.8 14.6 11.9 83 1.6 S 4 7 2 4 - - -
23/09:30am 14.8 14.7 12.1 84 1.5 SSE 4 7 2 4 - - -
23/09:00am 14.7 14.2 12.2 85 1.4 SSE 6 7 3 4 - - -
23/08:30am 14.6 13.9 12.1 85 1.4 SSE 7 9 4 5 - - -
23/08:00am 14.5 14.0 12.0 85 1.4 S 6 9 3 5 - - -
23/07:30am 14.6 14.1 12.1 85 1.4 SSE 6 11 3 6 - - -
23/07:00am 14.6 14.6 12.3 86 1.3 S 4 9 2 5 - - -
23/06:30am 14.6 14.6 12.5 87 1.1 S 4 6 2 3 - - -
23/06:00am 14.7 14.8 12.7 88 1.1 S 4 7 2 4 - - -
23/05:30am 14.8 14.6 13.0 89 1.0 S 6 7 3 4 - - -
23/05:00am 14.6 14.2 13.0 90 0.9 SSW 7 11 4 6 - - -
23/04:30am 14.6 14.2 13.1 91 0.8 SW 7 13 4 7 - - -
23/04:00am 14.6 14.2 13.1 91 0.8 SW 7 9 4 5 - - -
23/03:30am 14.7 14.4 13.2 91 0.8 WSW 7 9 4 5 - - -
23/03:00am 14.7 13.6 13.2 91 0.8 WSW 11 15 6 8 - - -
23/02:30am 14.6 13.1 13.1 91 0.8 SW 13 19 7 10 - - -
23/02:00am 14.8 13.3 13.2 90 0.9 SW 13 19 7 10 - - -
23/01:30am 14.9 11.8 13.3 90 0.9 WSW 22 28 12 15 - - -
23/01:00am 15.3 12.6 13.5 89 1.0 WSW 20 24 11 13 - - -
23/12:30am 16.5 15.9 13.6 83 1.6 E 9 20 5 11 - - -
23/12:00am 16.0 16.5 14.0 88 1.1 SSE 4 9 2 5 - - -
 
Date/Time
EDT
Temp
°C
App
Temp
°C
Dew
Point
Rel
Hum
%
Delta-T
°C
Wind Press
QNH
hPa
Press
MSL
hPa
Rain
since 9 am
mm
Dir
 
Spd
km/h
Gust
km/h
Spd
kts
Gust
kts
22/11:30pm 15.3 11.5 13.5 89 1.0 SW 26 37 14 20 - - -
22/11:00pm 15.2 11.0 13.4 89 1.0 WSW 28 35 15 19 - - -
22/10:30pm 15.7 11.8 13.4 86 1.3 SW 26 33 14 18 - - -
22/10:00pm 16.1 10.8 13.0 82 1.7 WSW 33 44 18 24 - - -
22/09:30pm 18.7 13.6 13.8 73 2.8 WSW 33 39 18 21 - - -
22/09:14pm 19.9 17.5 12.7 63 4.1 W 17 22 9 12 - - -
22/09:00pm 25.1 23.5 10.2 39 8.2 SSE 9 13 5 7 - - -
22/08:30pm 25.3 24.2 11.8 43 7.7 SSE 9 13 5 7 - - -
22/08:00pm 26.1 24.6 11.8 41 8.2 SW 11 15 6 8 - - -
22/07:30pm 27.4 27.7 11.0 36 9.3 CALM 0 0 0 0 - - -
22/07:00pm 26.3 25.9 11.2 38 8.6 WSW 4 6 2 3 - - -
22/06:30pm 28.3 28.4 11.4 35 9.7 SW 2 6 1 3 - - -
22/06:00pm 27.0 26.3 10.2 35 9.4 N 4 7 2 4 - - -
22/05:30pm 27.9 27.6 8.7 30 10.5 CALM 0 2 0 1 - - -
22/05:00pm 26.5 25.5 10.2 36 9.1 W 6 9 3 5 - - -
22/04:30pm 28.5 28.4 10.7 33 10.1 SW 2 4 1 2 - - -
22/04:00pm 28.6 27.3 9.3 30 10.7 NNW 6 9 3 5 - - -
22/03:30pm 28.4 28.5 10.1 32 10.3 CALM 0 0 0 0 - - -
22/03:00pm 26.9 27.1 10.6 36 9.2 CALM 0 0 0 0 - - -
22/02:30pm 25.0 24.7 11.6 43 7.6 WSW 4 7 2 4 - - -
22/02:00pm 26.8 27.2 11.3 38 8.8 CALM 0 0 0 0 - - -
22/01:30pm 23.6 23.7 11.6 47 6.8 W 2 4 1 2 - - -
22/01:00pm 22.9 22.4 12.2 51 6.1 W 6 9 3 5 - - -
22/12:30pm 23.2 23.7 12.8 52 6.0 NW 2 9 1 5 - - -
22/12:00pm 22.9 23.2 12.2 51 6.1 N 2 6 1 3 - - -
22/11:30am 20.8 20.3 12.2 58 4.8 WSW 6 7 3 4 - - -
22/11:00am 19.9 18.1 12.2 61 4.3 WSW 13 15 7 8 - - -
22/10:30am 20.7 20.1 11.6 56 5.0 WNW 6 7 3 4 - - -
22/10:00am 20.3 20.7 11.2 56 5.0 CALM 0 4 0 2 - - -
22/09:30am 19.8 20.4 11.8 60 4.4 CALM 0 2 0 1 - - -
22/09:00am 17.7 17.9 10.6 63 3.8 CALM 0 4 0 2 - - -
22/08:30am 17.8 17.1 11.4 66 3.5 NNE 6 9 3 5 - - -
22/08:00am 16.6 16.5 10.7 68 3.1 N 2 6 1 3 - - -
22/07:30am 16.8 17.1 10.9 68 3.2 CALM 0 0 0 0 - - -
22/07:00am 16.3 16.5 10.6 69 3.0 CALM 0 0 0 0 - - -
22/06:30am 16.7 16.7 11.0 69 3.1 ENE 2 4 1 2 - - -
22/06:00am 15.3 14.6 9.9 70 2.8 ESE 4 6 2 3 - - -
22/05:30am 16.3 15.9 11.0 71 2.8 ESE 4 6 2 3 - - -
22/05:00am 15.7 14.9 10.9 73 2.6 SE 6 7 3 4 - - -
22/04:30am 15.4 14.0 10.8 74 2.4 SE 9 11 5 6 - - -
22/04:00am 15.0 13.2 11.0 77 2.1 SE 11 15 6 8 - - -
22/03:30am 13.9 11.9 10.3 79 1.9 SE 11 15 6 8 - - -
22/03:00am 13.8 11.4 10.0 78 2.0 SE 13 17 7 9 - - -
22/02:30am 14.1 12.0 9.9 76 2.2 SE 11 17 6 9 - - -
22/02:00am 14.3 12.2 9.9 75 2.3 SE 11 17 6 9 - - -
22/01:30am - - - - - SE 11 17 6 9 - - -
22/01:00am 14.8 12.4 10.2 74 2.4 SE 13 19 7 10 - - -
22/12:30am 14.9 12.5 10.1 73 2.5 SE 13 19 7 10 - - -
22/12:00am 15.1 11.9 10.1 72 2.6 ESE 17 20 9 11 - - -
 
Date/Time
EDT
Temp
°C
App
Temp
°C
Dew
Point
Rel
Hum
%
Delta-T
°C
Wind Press
QNH
hPa
Press
MSL
hPa
Rain
since 9 am
mm
Dir
 
Spd
km/h
Gust
km/h
Spd
kts
Gust
kts
21/11:30pm 15.4 12.3 10.2 71 2.7 ESE 17 24 9 13 - - -
21/11:00pm 15.8 12.6 10.1 69 3.0 ESE 17 24 9 13 - - -
21/10:30pm 16.4 13.6 10.0 66 3.4 ESE 15 24 8 13 - - -
21/10:00pm 17.0 13.8 10.1 64 3.6 ESE 17 26 9 14 - - -
21/09:30pm 17.8 15.1 10.4 62 3.9 ESE 15 26 8 14 - - -

Other Formats:

Comma delimited format used in spreadsheet applications
http://www.bom.gov.au/fwo/IDV60801/IDV60801.94871.axf

JavaScript Object Notation format (JSON) in row-major order
http://www.bom.gov.au/fwo/IDV60801/IDV60801.94871.json